createdAt,value
2023-03-21T00:01:03.932Z,67.85
2023-03-21T00:03:34.206Z,67.47
2023-03-21T00:06:11.362Z,67.34
2023-03-21T00:08:40.157Z,67.69
2023-03-21T00:11:09.947Z,67.94
2023-03-21T00:13:38.770Z,67.98
2023-03-21T00:16:15.899Z,68.13
2023-03-21T00:18:52.747Z,67.80
2023-03-21T00:24:17.024Z,67.59
2023-03-21T00:26:46.280Z,67.65
2023-03-21T00:29:14.595Z,67.70
2023-03-21T00:31:42.836Z,67.98
2023-03-21T00:36:44.243Z,68.00
2023-03-21T00:39:12.508Z,67.77
2023-03-21T00:41:43.365Z,67.82
2023-03-21T00:44:16.009Z,68.03
2023-03-21T00:46:57.107Z,68.33
2023-03-21T00:49:38.608Z,68.53
2023-03-21T00:52:18.686Z,68.69
2023-03-21T00:54:53.145Z,68.69
2023-03-21T00:57:29.347Z,68.65
2023-03-21T01:00:08.001Z,68.67
2023-03-21T01:02:38.154Z,69.11
2023-03-21T01:05:06.949Z,69.29
2023-03-21T01:07:35.207Z,69.17
2023-03-21T01:10:03.386Z,69.11
2023-03-21T01:12:31.772Z,69.03
2023-03-21T01:15:00.047Z,68.78
2023-03-21T01:17:28.522Z,68.89
2023-03-21T01:19:56.900Z,68.62
2023-03-21T01:22:24.955Z,68.63
2023-03-21T01:24:58.574Z,68.99
2023-03-21T01:27:29.097Z,69.05
2023-03-21T01:29:57.811Z,68.86
2023-03-21T01:32:26.890Z,68.81
2023-03-21T01:34:55.461Z,69.13
2023-03-21T01:37:26.734Z,68.53
2023-03-21T01:39:55.388Z,68.62
2023-03-21T01:42:23.773Z,68.64
2023-03-21T01:45:01.659Z,68.92
2023-03-21T01:47:46.327Z,69.19
2023-03-21T01:50:37.126Z,69.06
2023-03-21T01:53:24.145Z,68.94
2023-03-21T01:55:52.427Z,68.77
2023-03-21T01:58:42.422Z,68.90
2023-03-21T02:01:34.939Z,68.57
2023-03-21T02:04:04.067Z,68.81
2023-03-21T02:06:49.566Z,68.69
2023-03-21T02:09:33.735Z,68.54
2023-03-21T02:12:03.279Z,68.99
2023-03-21T02:14:34.726Z,69.62
2023-03-21T02:17:19.897Z,69.38
2023-03-21T02:20:33.529Z,70.07
2023-03-21T02:23:41.251Z,69.91
2023-03-21T02:26:42.148Z,69.48
2023-03-21T02:29:22.025Z,69.61
2023-03-21T02:32:12.381Z,69.92
2023-03-21T02:34:54.131Z,70.13
2023-03-21T02:37:36.706Z,70.47
2023-03-21T02:40:15.771Z,70.32
2023-03-21T02:42:59.300Z,70.14
2023-03-21T02:45:49.896Z,70.49
2023-03-21T02:48:49.761Z,70.99
2023-03-21T02:51:23.221Z,71.17
2023-03-21T02:54:23.650Z,71.46
2023-03-21T02:56:49.162Z,71.15
2023-03-21T02:59:19.569Z,71.04
2023-03-21T03:01:47.986Z,71.03
2023-03-21T03:04:28.108Z,70.78
2023-03-21T03:07:15.843Z,71.55
2023-03-21T03:09:52.721Z,71.87
2023-03-21T03:12:39.116Z,71.41
2023-03-21T03:15:18.044Z,71.52
2023-03-21T03:18:09.545Z,71.46
2023-03-21T03:20:56.574Z,71.69
2023-03-21T03:23:27.926Z,71.85
2023-03-21T03:26:42.607Z,72.10
2023-03-21T03:29:16.786Z,71.67
2023-03-21T03:32:25.816Z,72.19
2023-03-21T03:34:58.666Z,72.21
2023-03-21T03:37:34.418Z,71.99
2023-03-21T03:40:09.181Z,71.93
2023-03-21T03:42:46.594Z,72.14
2023-03-21T03:45:27.148Z,72.43
2023-03-21T03:48:06.256Z,71.69
2023-03-21T03:50:47.837Z,71.73
2023-03-21T03:53:29.833Z,71.44
2023-03-21T03:56:00.811Z,71.75
2023-03-21T03:58:44.607Z,71.98
2023-03-21T04:01:14.644Z,71.63
2023-03-21T04:03:51.063Z,71.50
2023-03-21T04:06:22.871Z,71.24
2023-03-21T04:08:52.178Z,71.40
2023-03-21T04:11:20.674Z,71.11
2023-03-21T04:13:52.228Z,71.18
2023-03-21T04:16:24.705Z,70.81
2023-03-21T04:18:53.345Z,71.11
2023-03-21T04:21:22.082Z,71.17
2023-03-21T04:23:50.549Z,71.16
2023-03-21T04:26:22.527Z,71.27
2023-03-21T04:29:05.476Z,71.16
2023-03-21T04:32:03.627Z,71.17
2023-03-21T04:34:32.194Z,71.58
2023-03-21T04:37:01.658Z,71.60
2023-03-21T04:39:29.704Z,71.43
2023-03-21T04:41:57.900Z,71.40
2023-03-21T04:44:26.635Z,71.70
2023-03-21T04:46:54.762Z,71.72
2023-03-21T04:49:23.246Z,71.21
2023-03-21T04:51:51.530Z,71.37
2023-03-21T04:54:21.171Z,71.37
2023-03-21T04:56:49.292Z,71.87
2023-03-21T04:59:17.349Z,72.12
2023-03-21T05:01:46.125Z,72.44
2023-03-21T05:04:15.043Z,72.57
2023-03-21T05:06:44.445Z,72.35
2023-03-21T05:09:13.860Z,72.20
2023-03-21T05:11:42.751Z,72.38
2023-03-21T05:14:16.787Z,72.32
2023-03-21T05:16:48.747Z,71.96
2023-03-21T05:19:19.179Z,72.15
2023-03-21T05:21:47.506Z,72.42
2023-03-21T05:24:22.964Z,72.34
2023-03-21T05:26:52.739Z,72.86
2023-03-21T05:29:25.544Z,72.56
2023-03-21T05:32:01.204Z,72.24
2023-03-21T05:34:30.079Z,71.89
2023-03-21T05:36:58.716Z,72.18
2023-03-21T05:39:30.383Z,72.35
2023-03-21T05:42:08.785Z,72.53
2023-03-21T05:44:37.740Z,72.73
2023-03-21T05:47:07.338Z,72.76
2023-03-21T05:49:42.409Z,72.97
2023-03-21T05:52:11.371Z,73.31
2023-03-21T05:54:39.635Z,73.42
2023-03-21T05:57:08.580Z,72.82
2023-03-21T05:59:58.813Z,72.48
2023-03-21T06:02:28.966Z,72.36
2023-03-21T06:04:58.137Z,72.11
2023-03-21T06:07:27.220Z,71.88
2023-03-21T06:09:56.581Z,71.46
2023-03-21T06:12:24.695Z,71.19
2023-03-21T06:14:58.823Z,71.00
2023-03-21T06:17:33.231Z,70.97
2023-03-21T06:20:08.377Z,70.41
2023-03-21T06:22:43.044Z,69.91
2023-03-21T06:25:12.590Z,69.61
2023-03-21T06:27:41.096Z,69.13
2023-03-21T06:30:10.333Z,68.97
2023-03-21T06:32:46.137Z,68.65
2023-03-21T06:35:17.581Z,67.97
2023-03-21T06:37:46.355Z,67.71
2023-03-21T06:40:14.946Z,67.76
2023-03-21T06:42:43.332Z,67.68
2023-03-21T06:45:12.116Z,67.69
2023-03-21T06:47:40.311Z,67.61
2023-03-21T06:50:13.541Z,67.40
2023-03-21T06:52:43.171Z,67.15
2023-03-21T06:55:11.877Z,66.72
2023-03-21T06:57:40.049Z,66.58
2023-03-21T07:00:09.624Z,66.55
2023-03-21T07:02:41.412Z,66.24
2023-03-21T07:05:17.420Z,65.88
2023-03-21T07:07:45.753Z,65.20
2023-03-21T07:10:14.329Z,64.91
2023-03-21T07:13:01.097Z,65.18
2023-03-21T07:16:08.754Z,64.51
2023-03-21T07:18:37.000Z,63.94
2023-03-21T07:21:05.276Z,62.60
2023-03-21T07:23:33.293Z,62.86
2023-03-21T07:26:02.109Z,62.15
2023-03-21T07:28:32.270Z,60.98
2023-03-21T07:31:04.321Z,60.71
2023-03-21T07:33:33.419Z,60.24
2023-03-21T07:36:02.738Z,59.67
2023-03-21T07:38:31.298Z,59.07
2023-03-21T07:41:00.879Z,57.49
2023-03-21T07:43:31.951Z,56.54
2023-03-21T07:46:00.760Z,56.10
2023-03-21T07:48:29.618Z,55.84
2023-03-21T07:50:57.903Z,54.84
2023-03-21T07:53:26.371Z,53.75
2023-03-21T07:55:56.738Z,51.87
2023-03-21T07:58:25.684Z,52.13
2023-03-21T08:00:56.958Z,50.54
2023-03-21T08:03:26.539Z,48.88
2023-03-21T08:05:55.130Z,46.61
2023-03-21T08:08:23.607Z,46.18
2023-03-21T08:10:51.772Z,44.12
2023-03-21T08:13:19.861Z,43.90
2023-03-21T08:15:47.835Z,43.25
2023-03-21T08:18:16.100Z,43.70
2023-03-21T08:20:44.482Z,43.18
2023-03-21T08:23:14.173Z,42.86
2023-03-21T08:25:42.354Z,42.84
2023-03-21T08:28:10.424Z,42.08
2023-03-21T08:30:38.504Z,41.03
2023-03-21T08:33:06.771Z,39.02
2023-03-21T08:35:40.836Z,39.70
2023-03-21T08:38:10.182Z,39.78
2023-03-21T08:40:38.852Z,39.14
2023-03-21T08:43:07.547Z,39.22
2023-03-21T08:45:36.172Z,39.85
2023-03-21T08:48:05.081Z,39.29
2023-03-21T08:50:33.092Z,38.28
2023-03-21T08:53:01.076Z,38.71
2023-03-21T08:55:29.446Z,39.25
2023-03-21T08:57:58.546Z,39.30
2023-03-21T09:00:27.526Z,39.84
2023-03-21T09:02:58.922Z,40.75
2023-03-21T09:05:28.479Z,40.73
2023-03-21T09:07:56.957Z,40.24
2023-03-21T09:10:25.541Z,40.24
2023-03-21T09:12:55.082Z,40.34
2023-03-21T09:15:25.916Z,40.58
2023-03-21T09:17:54.497Z,40.75
2023-03-21T09:20:33.104Z,40.40
2023-03-21T09:23:02.135Z,40.25
2023-03-21T09:25:35.216Z,39.84
2023-03-21T09:28:06.417Z,39.07
2023-03-21T09:30:36.842Z,39.37
2023-03-21T09:33:13.316Z,39.39
2023-03-21T09:35:43.023Z,39.20
2023-03-21T09:38:11.393Z,40.33
2023-03-21T09:40:57.159Z,40.93
2023-03-21T09:43:40.598Z,40.49
2023-03-21T09:46:19.797Z,41.02
2023-03-21T09:48:57.088Z,41.04
2023-03-21T09:51:46.237Z,39.95
2023-03-21T09:54:18.906Z,39.59
2023-03-21T09:56:49.592Z,39.83
2023-03-21T09:59:28.315Z,40.43
2023-03-21T10:01:58.532Z,40.33
2023-03-21T10:04:27.771Z,39.62
2023-03-21T10:07:02.466Z,39.84
2023-03-21T10:09:32.698Z,39.98
2023-03-21T10:12:14.923Z,40.84
2023-03-21T10:14:47.606Z,40.17
2023-03-21T10:17:16.044Z,40.46
2023-03-21T10:19:46.680Z,40.96
2023-03-21T10:22:14.952Z,40.92
2023-03-21T10:24:43.436Z,39.89
2023-03-21T10:27:13.376Z,38.96
2023-03-21T10:29:44.645Z,38.64
2023-03-21T10:32:17.425Z,38.64
2023-03-21T10:34:51.484Z,38.56
2023-03-21T10:37:19.864Z,38.57
2023-03-21T10:39:51.615Z,38.80
2023-03-21T10:42:27.176Z,38.67
2023-03-21T10:44:57.694Z,39.11
2023-03-21T10:47:34.718Z,39.73
2023-03-21T10:50:10.208Z,40.53
2023-03-21T10:52:46.804Z,41.18
2023-03-21T10:55:30.732Z,41.27
2023-03-21T10:58:08.630Z,41.68
2023-03-21T11:00:48.119Z,41.99
2023-03-21T11:03:23.443Z,42.01
2023-03-21T11:06:05.952Z,42.12
2023-03-21T11:09:14.029Z,42.23
2023-03-21T11:11:54.817Z,42.04
2023-03-21T11:14:52.366Z,42.24
2023-03-21T11:17:22.381Z,42.45
2023-03-21T11:19:53.542Z,42.57
2023-03-21T11:22:25.255Z,42.44
2023-03-21T11:24:57.267Z,43.13
2023-03-21T11:27:29.670Z,43.32
2023-03-21T11:30:01.905Z,43.63
2023-03-21T11:32:36.328Z,43.65
2023-03-21T11:35:16.564Z,43.98
2023-03-21T11:37:51.422Z,43.79
2023-03-21T11:40:25.415Z,43.83
2023-03-21T11:42:58.007Z,43.72
2023-03-21T11:45:32.206Z,44.46
2023-03-21T11:48:03.529Z,44.98
2023-03-21T11:50:36.160Z,45.02
2023-03-21T11:53:04.214Z,44.52
2023-03-21T11:55:57.569Z,43.76
2023-03-21T11:58:34.857Z,43.00
2023-03-21T12:01:21.248Z,42.01
2023-03-21T12:04:13.417Z,40.35
2023-03-21T12:06:52.870Z,39.48
2023-03-21T12:09:40.455Z,38.29
2023-03-21T12:12:30.028Z,36.80
2023-03-21T12:15:20.032Z,36.11
2023-03-21T12:17:51.146Z,35.14
2023-03-21T12:20:30.473Z,34.53
2023-03-21T12:23:13.993Z,33.80
2023-03-21T12:25:56.601Z,33.75
2023-03-21T12:28:52.215Z,34.26
2023-03-21T12:31:26.301Z,35.05
2023-03-21T12:34:18.699Z,35.97
2023-03-21T12:36:58.417Z,36.73
2023-03-21T12:39:32.147Z,37.49
2023-03-21T12:42:22.309Z,38.20
2023-03-21T12:45:11.586Z,39.23
2023-03-21T12:47:49.016Z,40.67
2023-03-21T12:50:26.349Z,42.53
2023-03-21T12:53:02.212Z,47.43
2023-03-21T12:55:33.814Z,51.80
2023-03-21T12:58:11.655Z,55.51
2023-03-21T13:00:44.567Z,57.15
2023-03-21T13:03:27.660Z,56.62
2023-03-21T13:06:04.441Z,59.23
2023-03-21T13:08:38.047Z,60.48
2023-03-21T13:11:07.842Z,59.61
2023-03-21T13:13:53.122Z,59.69
2023-03-21T13:16:34.837Z,63.47
2023-03-21T13:19:14.023Z,67.67
2023-03-21T13:22:10.016Z,69.32
2023-03-21T13:24:47.453Z,69.60
2023-03-21T13:27:33.865Z,69.79
2023-03-21T13:30:22.238Z,69.66
2023-03-21T13:32:51.710Z,69.75
2023-03-21T13:35:29.121Z,69.39
2023-03-21T13:38:02.194Z,69.05
2023-03-21T13:40:43.022Z,68.45
2023-03-21T13:43:42.470Z,68.28
2023-03-21T13:46:11.231Z,68.75
2023-03-21T13:48:59.551Z,69.22
2023-03-21T13:51:28.158Z,68.89
2023-03-21T13:54:06.738Z,68.31
2023-03-21T13:56:47.113Z,67.27
2023-03-21T13:59:39.111Z,66.68
2023-03-21T14:02:19.184Z,66.11
2023-03-21T14:05:04.822Z,65.78
2023-03-21T14:07:41.108Z,65.84
2023-03-21T14:10:20.380Z,65.84
2023-03-21T14:12:49.371Z,66.29
2023-03-21T14:15:24.482Z,66.38
2023-03-21T14:18:15.875Z,66.37
2023-03-21T14:20:54.640Z,65.52
2023-03-21T14:23:23.732Z,65.26
2023-03-21T14:25:53.000Z,64.51
2023-03-21T14:28:28.679Z,64.05
2023-03-21T14:31:00.271Z,63.75
2023-03-21T14:33:44.317Z,63.57
2023-03-21T14:36:20.846Z,62.08
2023-03-21T14:38:58.659Z,60.80
2023-03-21T14:41:29.629Z,59.60
2023-03-21T14:44:12.547Z,60.00
2023-03-21T14:46:41.971Z,59.48
2023-03-21T14:49:24.669Z,57.96
2023-03-21T14:52:00.118Z,55.50
2023-03-21T14:54:29.247Z,53.85
2023-03-21T14:57:05.185Z,54.33
2023-03-21T14:59:37.702Z,55.21
2023-03-21T15:02:36.826Z,56.91
2023-03-21T15:05:19.610Z,57.04
2023-03-21T15:08:02.411Z,57.35
2023-03-21T15:10:32.022Z,57.80
2023-03-21T15:13:12.539Z,58.00
2023-03-21T15:15:41.618Z,58.19
2023-03-21T15:18:16.341Z,57.96
2023-03-21T15:20:46.706Z,58.43
2023-03-21T15:23:38.516Z,58.47
2023-03-21T15:26:07.146Z,58.91
2023-03-21T15:28:36.496Z,58.84
2023-03-21T15:31:13.948Z,59.18
2023-03-21T15:33:46.574Z,59.35
2023-03-21T15:36:28.018Z,59.36
2023-03-21T15:38:56.517Z,59.48
2023-03-21T15:41:29.718Z,59.51
2023-03-21T15:44:10.256Z,59.64
2023-03-21T15:46:46.387Z,60.20
2023-03-21T15:49:17.372Z,61.42
2023-03-21T15:51:49.654Z,62.44
2023-03-21T15:54:31.342Z,62.95
2023-03-21T15:57:04.725Z,63.40
2023-03-21T15:59:36.085Z,63.15
2023-03-21T16:02:05.198Z,63.09
2023-03-21T16:04:53.510Z,62.90
2023-03-21T16:07:25.472Z,62.73
2023-03-21T16:10:01.707Z,62.85
2023-03-21T16:12:29.883Z,62.87
2023-03-21T16:14:58.152Z,63.04
2023-03-21T16:17:39.769Z,63.25
2023-03-21T16:20:20.420Z,63.05
2023-03-21T16:22:48.818Z,63.08
2023-03-21T16:25:18.232Z,62.96
2023-03-21T16:27:47.618Z,63.26
2023-03-21T16:30:20.275Z,63.32
2023-03-21T16:32:50.312Z,63.36
2023-03-21T16:35:20.574Z,63.38
2023-03-21T16:37:49.948Z,63.46
2023-03-21T16:40:27.736Z,63.14
2023-03-21T16:42:56.113Z,63.25
2023-03-21T16:45:24.700Z,63.32
2023-03-21T16:47:53.620Z,63.22
2023-03-21T16:50:35.443Z,63.48
2023-03-21T16:53:04.705Z,63.35
2023-03-21T16:55:34.908Z,63.26
2023-03-21T16:58:03.697Z,63.16
2023-03-21T17:00:32.671Z,63.30
2023-03-21T17:03:03.741Z,63.39
2023-03-21T17:05:32.098Z,63.29
2023-03-21T17:08:04.732Z,63.26
2023-03-21T17:10:33.667Z,63.21
2023-03-21T17:13:02.048Z,63.35
2023-03-21T17:15:30.430Z,63.48
2023-03-21T17:17:58.604Z,63.11
2023-03-21T17:20:34.716Z,63.43
2023-03-21T17:23:03.568Z,63.58
2023-03-21T17:25:31.611Z,64.28
2023-03-21T17:28:00.009Z,64.46
2023-03-21T17:30:34.402Z,64.88
2023-03-21T17:33:02.986Z,64.58
2023-03-21T17:35:31.156Z,64.63
2023-03-21T17:37:59.548Z,64.67
2023-03-21T17:40:31.417Z,64.71
2023-03-21T17:43:01.408Z,64.76
2023-03-21T17:45:29.903Z,65.06
2023-03-21T17:47:58.181Z,65.66
2023-03-21T17:50:31.473Z,66.56
2023-03-21T17:52:59.739Z,67.60
2023-03-21T17:55:27.641Z,67.76
2023-03-21T17:57:55.881Z,67.85
2023-03-21T18:00:27.247Z,68.01
2023-03-21T18:02:56.431Z,68.12
2023-03-21T18:05:26.845Z,68.54
2023-03-21T18:08:10.318Z,68.65
2023-03-21T18:10:42.161Z,68.38
2023-03-21T18:13:11.372Z,68.82
2023-03-21T18:15:44.077Z,68.74
2023-03-21T18:18:14.550Z,69.07
2023-03-21T18:20:51.766Z,69.21
2023-03-21T18:23:21.797Z,69.27
2023-03-21T18:25:52.754Z,69.17
2023-03-21T18:28:22.425Z,69.10
2023-03-21T18:31:12.610Z,69.02
2023-03-21T18:33:41.705Z,68.91
2023-03-21T18:36:13.792Z,69.70
2023-03-21T18:38:42.868Z,69.61
2023-03-21T18:41:11.629Z,69.34
2023-03-21T18:46:28.411Z,69.72
2023-03-21T18:48:57.981Z,69.61
2023-03-21T18:51:26.463Z,69.77
2023-03-21T18:53:55.231Z,69.69
2023-03-21T18:57:13.223Z,70.21
2023-03-21T18:59:12.474Z,70.81
2023-03-21T19:01:42.077Z,71.86
2023-03-21T19:04:23.057Z,72.27
2023-03-21T19:06:58.556Z,70.94
2023-03-21T19:09:31.394Z,70.78
2023-03-21T19:12:01.594Z,71.04
2023-03-21T19:14:30.168Z,71.10
2023-03-21T19:17:55.795Z,70.96
2023-03-21T19:19:48.049Z,70.91
2023-03-21T19:22:16.940Z,71.23
2023-03-21T19:24:44.980Z,71.00
2023-03-21T19:27:13.562Z,70.93
2023-03-21T19:29:42.046Z,70.88
2023-03-21T19:32:10.303Z,70.47
2023-03-21T19:34:38.824Z,70.87
2023-03-21T19:37:07.327Z,70.76
2023-03-21T19:39:35.665Z,70.40
2023-03-21T19:42:15.959Z,70.64
2023-03-21T19:44:45.829Z,70.58
2023-03-21T19:47:13.809Z,70.58
2023-03-21T19:50:30.665Z,70.66
2023-03-21T19:52:32.270Z,71.11
2023-03-21T19:55:00.533Z,71.37
2023-03-21T19:57:28.610Z,71.37
2023-03-21T19:59:56.886Z,71.61
2023-03-21T20:02:35.555Z,71.80
2023-03-21T20:05:06.828Z,71.58
2023-03-21T20:07:35.081Z,72.03
2023-03-21T20:10:03.927Z,72.13
2023-03-21T20:12:35.071Z,72.03
2023-03-21T20:15:16.990Z,71.75
2023-03-21T20:17:46.043Z,71.97
2023-03-21T20:20:17.131Z,72.13
2023-03-21T20:23:06.388Z,72.23
2023-03-21T20:25:39.837Z,72.60
2023-03-21T20:28:23.761Z,72.40
2023-03-21T20:31:00.756Z,72.10
2023-03-21T20:33:29.773Z,72.47
2023-03-21T20:36:38.278Z,72.53
2023-03-21T20:38:52.836Z,72.22
2023-03-21T20:41:20.982Z,72.51
2023-03-21T20:46:37.786Z,72.54
2023-03-21T20:49:08.812Z,72.70
2023-03-21T20:54:25.301Z,72.86
2023-03-21T20:56:53.356Z,73.35
2023-03-21T20:59:27.296Z,73.45
2023-03-21T21:01:57.771Z,73.57
2023-03-21T21:04:48.292Z,74.00
2023-03-21T21:07:22.810Z,73.59
2023-03-21T21:09:50.863Z,74.00
2023-03-21T21:12:19.520Z,74.08
2023-03-21T21:14:48.450Z,75.17
2023-03-21T21:20:17.998Z,74.29
2023-03-21T21:23:13.564Z,74.43
2023-03-21T21:25:41.709Z,74.56
2023-03-21T21:28:27.144Z,74.55
2023-03-21T21:31:01.229Z,74.46
2023-03-21T21:33:29.737Z,75.04
2023-03-21T21:36:03.658Z,74.95
2023-03-21T21:38:36.198Z,75.00
2023-03-21T21:41:07.888Z,74.88
2023-03-21T21:43:36.766Z,75.12
2023-03-21T21:46:05.659Z,75.46
2023-03-21T21:48:34.323Z,75.27
2023-03-21T21:51:02.627Z,75.44
2023-03-21T21:53:33.852Z,75.48
2023-03-21T21:56:06.393Z,75.21
2023-03-21T21:58:38.629Z,75.14
2023-03-21T22:01:07.246Z,75.27
2023-03-21T22:03:36.574Z,75.26
2023-03-21T22:06:05.114Z,75.43
2023-03-21T22:08:33.524Z,75.68
2023-03-21T22:11:02.541Z,75.28
2023-03-21T22:13:30.737Z,76.05
2023-03-21T22:15:58.702Z,76.33
2023-03-21T22:18:26.747Z,76.26
2023-03-21T22:20:54.846Z,76.17
2023-03-21T22:23:26.085Z,76.69
2023-03-21T22:25:54.096Z,76.68
2023-03-21T22:28:22.269Z,76.52
2023-03-21T22:30:50.490Z,77.10
2023-03-21T22:33:20.092Z,77.67
2023-03-21T22:35:52.874Z,77.31
2023-03-21T22:38:24.160Z,77.13
2023-03-21T22:40:59.982Z,76.94
2023-03-21T22:43:28.965Z,77.20
2023-03-21T22:45:57.338Z,77.40
2023-03-21T22:48:25.677Z,77.58
2023-03-21T22:50:53.788Z,77.70
2023-03-21T22:53:22.256Z,78.68
2023-03-21T22:55:50.560Z,78.41
2023-03-21T22:58:19.215Z,78.76
2023-03-21T23:00:47.514Z,79.22
2023-03-21T23:03:17.107Z,78.77
2023-03-21T23:05:45.820Z,78.49
2023-03-21T23:08:14.035Z,79.13
2023-03-21T23:10:46.323Z,79.20
2023-03-21T23:13:14.104Z,79.68
2023-03-21T23:15:42.163Z,78.95
2023-03-21T23:18:10.452Z,79.03
2023-03-21T23:20:38.637Z,78.85
2023-03-21T23:23:06.902Z,79.08
2023-03-21T23:25:38.638Z,79.10
2023-03-21T23:28:08.375Z,78.83
2023-03-21T23:30:39.039Z,79.64
2023-03-21T23:33:07.256Z,79.46
2023-03-21T23:35:38.518Z,79.04
2023-03-21T23:38:06.924Z,78.95
2023-03-21T23:40:34.862Z,79.08
2023-03-21T23:43:03.239Z,78.81
2023-03-21T23:45:31.217Z,78.96
2023-03-21T23:47:59.088Z,79.32
2023-03-21T23:50:27.145Z,79.47
2023-03-21T23:52:54.970Z,78.99
2023-03-21T23:55:23.183Z,78.86
2023-03-21T23:57:59.058Z,79.47
